sensor_id;sensor_type;location;lat;lon;timestamp;P1;durP1;ratioP1;P2;durP2;ratioP2
10056;SDS011;5068;51.286;7.518;2022-12-20T00:00:05;2.55;;;1.75;;
10056;SDS011;5068;51.286;7.518;2022-12-20T00:01:43;4.63;;;1.60;;
10056;SDS011;5068;51.286;7.518;2022-12-20T00:03:18;2.67;;;1.65;;
10056;SDS011;5068;51.286;7.518;2022-12-20T00:04:51;2.38;;;1.55;;
10056;SDS011;5068;51.286;7.518;2022-12-20T00:06:25;3.97;;;1.88;;
10056;SDS011;5068;51.286;7.518;2022-12-20T00:07:58;2.65;;;1.60;;
10056;SDS011;5068;51.286;7.518;2022-12-20T00:09:32;2.95;;;1.67;;
10056;SDS011;5068;51.286;7.518;2022-12-20T00:11:05;3.45;;;1.65;;
10056;SDS011;5068;51.286;7.518;2022-12-20T00:14:12;2.28;;;1.35;;
10056;SDS011;5068;51.286;7.518;2022-12-20T00:15:46;3.83;;;1.70;;
10056;SDS011;5068;51.286;7.518;2022-12-20T00:17:20;2.67;;;1.73;;
10056;SDS011;5068;51.286;7.518;2022-12-20T00:18:55;2.03;;;1.38;;
10056;SDS011;5068;51.286;7.518;2022-12-20T00:20:31;2.92;;;1.42;;
10056;SDS011;5068;51.286;7.518;2022-12-20T00:22:04;2.83;;;1.48;;
10056;SDS011;5068;51.286;7.518;2022-12-20T00:23:37;4.38;;;1.77;;
10056;SDS011;5068;51.286;7.518;2022-12-20T00:25:10;2.42;;;1.67;;
10056;SDS011;5068;51.286;7.518;2022-12-20T00:26:44;2.75;;;1.83;;
10056;SDS011;5068;51.286;7.518;2022-12-20T00:28:17;2.33;;;1.60;;
10056;SDS011;5068;51.286;7.518;2022-12-20T00:29:50;2.80;;;1.38;;
10056;SDS011;5068;51.286;7.518;2022-12-20T00:31:23;2.92;;;1.42;;
10056;SDS011;5068;51.286;7.518;2022-12-20T00:32:59;2.88;;;1.42;;
10056;SDS011;5068;51.286;7.518;2022-12-20T00:34:33;2.40;;;1.75;;
10056;SDS011;5068;51.286;7.518;2022-12-20T00:36:07;2.28;;;1.42;;
10056;SDS011;5068;51.286;7.518;2022-12-20T00:37:40;2.97;;;1.70;;
10056;SDS011;5068;51.286;7.518;2022-12-20T00:39:13;3.08;;;1.52;;
10056;SDS011;5068;51.286;7.518;2022-12-20T00:40:46;2.60;;;1.90;;
10056;SDS011;5068;51.286;7.518;2022-12-20T00:42:19;5.25;;;1.85;;
10056;SDS011;5068;51.286;7.518;2022-12-20T00:43:52;3.25;;;1.65;;
10056;SDS011;5068;51.286;7.518;2022-12-20T00:45:26;3.13;;;2.03;;
10056;SDS011;5068;51.286;7.518;2022-12-20T00:46:59;2.72;;;1.50;;
10056;SDS011;5068;51.286;7.518;2022-12-20T00:48:33;3.88;;;1.73;;
10056;SDS011;5068;51.286;7.518;2022-12-20T00:50:07;3.03;;;1.38;;
10056;SDS011;5068;51.286;7.518;2022-12-20T00:51:41;2.88;;;1.73;;
10056;SDS011;5068;51.286;7.518;2022-12-20T00:53:15;3.03;;;2.00;;
10056;SDS011;5068;51.286;7.518;2022-12-20T00:54:54;3.20;;;1.80;;
10056;SDS011;5068;51.286;7.518;2022-12-20T00:56:28;3.70;;;1.70;;
10056;SDS011;5068;51.286;7.518;2022-12-20T00:58:00;2.70;;;1.67;;
10056;SDS011;5068;51.286;7.518;2022-12-20T00:59:33;4.40;;;1.70;;
10056;SDS011;5068;51.286;7.518;2022-12-20T01:01:13;3.38;;;1.88;;
10056;SDS011;5068;51.286;7.518;2022-12-20T01:02:51;2.33;;;1.35;;
10056;SDS011;5068;51.286;7.518;2022-12-20T01:04:25;2.15;;;1.33;;
10056;SDS011;5068;51.286;7.518;2022-12-20T01:06:00;4.20;;;1.60;;
10056;SDS011;5068;51.286;7.518;2022-12-20T01:07:33;2.40;;;1.55;;
10056;SDS011;5068;51.286;7.518;2022-12-20T01:09:06;2.85;;;1.52;;
10056;SDS011;5068;51.286;7.518;2022-12-20T01:10:39;2.88;;;1.50;;
10056;SDS011;5068;51.286;7.518;2022-12-20T01:12:13;2.90;;;1.60;;
10056;SDS011;5068;51.286;7.518;2022-12-20T01:13:47;2.10;;;1.42;;
10056;SDS011;5068;51.286;7.518;2022-12-20T01:15:23;2.88;;;1.50;;
10056;SDS011;5068;51.286;7.518;2022-12-20T01:16:55;3.85;;;1.50;;
10056;SDS011;5068;51.286;7.518;2022-12-20T01:18:29;2.70;;;1.50;;
10056;SDS011;5068;51.286;7.518;2022-12-20T01:20:02;2.75;;;1.63;;
10056;SDS011;5068;51.286;7.518;2022-12-20T01:21:39;3.13;;;1.50;;
10056;SDS011;5068;51.286;7.518;2022-12-20T01:23:15;2.53;;;1.50;;
10056;SDS011;5068;51.286;7.518;2022-12-20T01:24:48;3.30;;;1.80;;
10056;SDS011;5068;51.286;7.518;2022-12-20T01:26:22;3.33;;;1.80;;
10056;SDS011;5068;51.286;7.518;2022-12-20T01:27:58;3.55;;;1.50;;
10056;SDS011;5068;51.286;7.518;2022-12-20T01:29:32;2.50;;;1.35;;
10056;SDS011;5068;51.286;7.518;2022-12-20T01:31:05;2.65;;;1.35;;
10056;SDS011;5068;51.286;7.518;2022-12-20T01:32:39;1.90;;;1.33;;
10056;SDS011;5068;51.286;7.518;2022-12-20T01:34:12;2.83;;;1.23;;
10056;SDS011;5068;51.286;7.518;2022-12-20T01:35:53;2.25;;;1.17;;
10056;SDS011;5068;51.286;7.518;2022-12-20T01:37:28;2.47;;;1.50;;
10056;SDS011;5068;51.286;7.518;2022-12-20T01:39:03;4.45;;;1.70;;
10056;SDS011;5068;51.286;7.518;2022-12-20T01:40:40;3.92;;;1.63;;
10056;SDS011;5068;51.286;7.518;2022-12-20T01:42:13;2.25;;;1.40;;
10056;SDS011;5068;51.286;7.518;2022-12-20T01:43:49;1.85;;;1.48;;
10056;SDS011;5068;51.286;7.518;2022-12-20T01:45:25;2.67;;;1.20;;
10056;SDS011;5068;51.286;7.518;2022-12-20T01:47:01;2.83;;;1.40;;
10056;SDS011;5068;51.286;7.518;2022-12-20T01:48:35;2.83;;;1.30;;
10056;SDS011;5068;51.286;7.518;2022-12-20T01:50:08;1.83;;;1.30;;
10056;SDS011;5068;51.286;7.518;2022-12-20T01:51:43;2.33;;;1.65;;
10056;SDS011;5068;51.286;7.518;2022-12-20T01:53:22;2.90;;;1.50;;
10056;SDS011;5068;51.286;7.518;2022-12-20T01:54:58;2.30;;;1.42;;
10056;SDS011;5068;51.286;7.518;2022-12-20T01:56:38;2.50;;;1.40;;
10056;SDS011;5068;51.286;7.518;2022-12-20T01:58:16;2.33;;;1.30;;
10056;SDS011;5068;51.286;7.518;2022-12-20T01:59:51;2.33;;;1.50;;
10056;SDS011;5068;51.286;7.518;2022-12-20T02:01:26;2.30;;;1.30;;
10056;SDS011;5068;51.286;7.518;2022-12-20T02:03:00;1.85;;;1.20;;
10056;SDS011;5068;51.286;7.518;2022-12-20T02:04:39;3.58;;;1.50;;
10056;SDS011;5068;51.286;7.518;2022-12-20T02:06:13;1.95;;;1.30;;
10056;SDS011;5068;51.286;7.518;2022-12-20T02:07:50;2.97;;;1.33;;
10056;SDS011;5068;51.286;7.518;2022-12-20T02:09:28;2.15;;;1.30;;
10056;SDS011;5068;51.286;7.518;2022-12-20T02:11:07;2.75;;;1.63;;
10056;SDS011;5068;51.286;7.518;2022-12-20T02:12:57;2.85;;;1.30;;
10056;SDS011;5068;51.286;7.518;2022-12-20T02:14:43;2.42;;;1.30;;
10056;SDS011;5068;51.286;7.518;2022-12-20T02:16:40;2.95;;;1.20;;
10056;SDS011;5068;51.286;7.518;2022-12-20T02:18:25;2.00;;;1.20;;
10056;SDS011;5068;51.286;7.518;2022-12-20T02:22:20;3.35;;;1.40;;
10056;SDS011;5068;51.286;7.518;2022-12-20T02:26:40;1.88;;;1.20;;
10056;SDS011;5068;51.286;7.518;2022-12-20T02:28:55;1.50;;;0.93;;
10056;SDS011;5068;51.286;7.518;2022-12-20T02:30:51;2.25;;;1.13;;
10056;SDS011;5068;51.286;7.518;2022-12-20T02:32:30;3.65;;;1.30;;
10056;SDS011;5068;51.286;7.518;2022-12-20T02:34:10;2.60;;;1.35;;
10056;SDS011;5068;51.286;7.518;2022-12-20T02:35:46;3.42;;;1.38;;
10056;SDS011;5068;51.286;7.518;2022-12-20T02:37:20;1.98;;;1.33;;
10056;SDS011;5068;51.286;7.518;2022-12-20T02:38:56;2.33;;;1.65;;
10056;SDS011;5068;51.286;7.518;2022-12-20T02:40:31;2.50;;;1.63;;
10056;SDS011;5068;51.286;7.518;2022-12-20T02:42:11;3.30;;;1.55;;
10056;SDS011;5068;51.286;7.518;2022-12-20T02:43:51;3.00;;;1.40;;
10056;SDS011;5068;51.286;7.518;2022-12-20T02:45:49;2.95;;;1.58;;
10056;SDS011;5068;51.286;7.518;2022-12-20T02:47:24;2.55;;;1.80;;
10056;SDS011;5068;51.286;7.518;2022-12-20T02:49:06;2.70;;;1.40;;
10056;SDS011;5068;51.286;7.518;2022-12-20T02:50:45;2.90;;;1.45;;
10056;SDS011;5068;51.286;7.518;2022-12-20T02:52:23;2.05;;;1.30;;
10056;SDS011;5068;51.286;7.518;2022-12-20T02:55:36;2.30;;;1.40;;
10056;SDS011;5068;51.286;7.518;2022-12-20T02:57:18;3.75;;;1.60;;
10056;SDS011;5068;51.286;7.518;2022-12-20T02:59:01;2.50;;;1.50;;
10056;SDS011;5068;51.286;7.518;2022-12-20T03:00:41;2.20;;;1.20;;
10056;SDS011;5068;51.286;7.518;2022-12-20T03:02:20;2.40;;;1.52;;
10056;SDS011;5068;51.286;7.518;2022-12-20T03:03:57;2.35;;;1.40;;
10056;SDS011;5068;51.286;7.518;2022-12-20T03:05:31;2.45;;;1.75;;
10056;SDS011;5068;51.286;7.518;2022-12-20T03:07:14;3.60;;;1.80;;
10056;SDS011;5068;51.286;7.518;2022-12-20T03:08:48;3.08;;;1.60;;
10056;SDS011;5068;51.286;7.518;2022-12-20T03:10:21;3.13;;;1.73;;
10056;SDS011;5068;51.286;7.518;2022-12-20T03:11:54;3.05;;;1.80;;
10056;SDS011;5068;51.286;7.518;2022-12-20T03:13:27;2.95;;;1.67;;
10056;SDS011;5068;51.286;7.518;2022-12-20T03:15:06;3.17;;;1.65;;
10056;SDS011;5068;51.286;7.518;2022-12-20T03:16:39;3.30;;;1.67;;
10056;SDS011;5068;51.286;7.518;2022-12-20T03:18:15;2.15;;;1.58;;
10056;SDS011;5068;51.286;7.518;2022-12-20T03:19:48;9.65;;;2.20;;
10056;SDS011;5068;51.286;7.518;2022-12-20T03:21:22;3.17;;;1.70;;
10056;SDS011;5068;51.286;7.518;2022-12-20T03:22:55;3.10;;;1.83;;
10056;SDS011;5068;51.286;7.518;2022-12-20T03:24:28;2.97;;;1.40;;
10056;SDS011;5068;51.286;7.518;2022-12-20T03:26:03;2.88;;;1.90;;
10056;SDS011;5068;51.286;7.518;2022-12-20T03:27:41;3.40;;;1.90;;
10056;SDS011;5068;51.286;7.518;2022-12-20T03:29:14;3.40;;;2.00;;
10056;SDS011;5068;51.286;7.518;2022-12-20T03:30:47;3.38;;;1.83;;
10056;SDS011;5068;51.286;7.518;2022-12-20T03:32:21;3.03;;;1.65;;
10056;SDS011;5068;51.286;7.518;2022-12-20T03:33:55;3.10;;;1.77;;
10056;SDS011;5068;51.286;7.518;2022-12-20T03:35:29;4.10;;;2.17;;
10056;SDS011;5068;51.286;7.518;2022-12-20T03:37:02;3.92;;;1.92;;
10056;SDS011;5068;51.286;7.518;2022-12-20T03:38:36;2.95;;;1.77;;
10056;SDS011;5068;51.286;7.518;2022-12-20T03:40:11;3.20;;;1.63;;
10056;SDS011;5068;51.286;7.518;2022-12-20T03:41:47;2.78;;;1.52;;
10056;SDS011;5068;51.286;7.518;2022-12-20T03:43:22;3.35;;;1.70;;
10056;SDS011;5068;51.286;7.518;2022-12-20T03:44:55;3.10;;;1.50;;
10056;SDS011;5068;51.286;7.518;2022-12-20T03:46:31;2.67;;;1.65;;
10056;SDS011;5068;51.286;7.518;2022-12-20T03:48:04;2.55;;;1.73;;
10056;SDS011;5068;51.286;7.518;2022-12-20T03:49:39;2.58;;;1.60;;
10056;SDS011;5068;51.286;7.518;2022-12-20T03:51:11;2.90;;;1.88;;
10056;SDS011;5068;51.286;7.518;2022-12-20T03:52:44;3.00;;;1.65;;
10056;SDS011;5068;51.286;7.518;2022-12-20T03:54:18;3.03;;;1.60;;
10056;SDS011;5068;51.286;7.518;2022-12-20T03:56:05;2.78;;;1.88;;
10056;SDS011;5068;51.286;7.518;2022-12-20T03:57:39;2.63;;;1.63;;
10056;SDS011;5068;51.286;7.518;2022-12-20T03:59:26;2.53;;;1.50;;
10056;SDS011;5068;51.286;7.518;2022-12-20T04:01:00;3.38;;;1.85;;
10056;SDS011;5068;51.286;7.518;2022-12-20T04:02:41;2.55;;;1.63;;
10056;SDS011;5068;51.286;7.518;2022-12-20T04:04:16;3.95;;;1.80;;
10056;SDS011;5068;51.286;7.518;2022-12-20T04:05:51;3.60;;;1.67;;
10056;SDS011;5068;51.286;7.518;2022-12-20T04:07:25;4.30;;;1.90;;
10056;SDS011;5068;51.286;7.518;2022-12-20T04:08:58;2.53;;;1.58;;
10056;SDS011;5068;51.286;7.518;2022-12-20T04:10:37;2.65;;;1.48;;
10056;SDS011;5068;51.286;7.518;2022-12-20T04:12:35;2.88;;;1.45;;
10056;SDS011;5068;51.286;7.518;2022-12-20T04:14:11;2.20;;;1.35;;
10056;SDS011;5068;51.286;7.518;2022-12-20T04:15:44;2.67;;;1.50;;
10056;SDS011;5068;51.286;7.518;2022-12-20T04:17:17;2.83;;;1.70;;
10056;SDS011;5068;51.286;7.518;2022-12-20T04:18:51;2.08;;;1.50;;
10056;SDS011;5068;51.286;7.518;2022-12-20T04:20:24;3.33;;;1.75;;
10056;SDS011;5068;51.286;7.518;2022-12-20T04:22:11;2.53;;;1.58;;
10056;SDS011;5068;51.286;7.518;2022-12-20T04:24:04;2.80;;;1.70;;
10056;SDS011;5068;51.286;7.518;2022-12-20T04:25:45;6.38;;;2.50;;
10056;SDS011;5068;51.286;7.518;2022-12-20T04:28:55;2.05;;;1.50;;
10056;SDS011;5068;51.286;7.518;2022-12-20T04:30:28;3.03;;;1.50;;
10056;SDS011;5068;51.286;7.518;2022-12-20T04:32:02;2.63;;;1.70;;
10056;SDS011;5068;51.286;7.518;2022-12-20T04:33:36;5.20;;;2.40;;
10056;SDS011;5068;51.286;7.518;2022-12-20T04:35:10;3.83;;;1.88;;
10056;SDS011;5068;51.286;7.518;2022-12-20T04:36:45;2.40;;;1.77;;
10056;SDS011;5068;51.286;7.518;2022-12-20T04:38:29;3.58;;;1.75;;
10056;SDS011;5068;51.286;7.518;2022-12-20T04:40:02;3.55;;;1.85;;
10056;SDS011;5068;51.286;7.518;2022-12-20T04:41:50;2.63;;;1.80;;
10056;SDS011;5068;51.286;7.518;2022-12-20T04:43:23;3.13;;;1.80;;
10056;SDS011;5068;51.286;7.518;2022-12-20T04:45:00;4.32;;;1.90;;
10056;SDS011;5068;51.286;7.518;2022-12-20T04:46:34;3.45;;;2.13;;
10056;SDS011;5068;51.286;7.518;2022-12-20T04:48:10;3.33;;;2.03;;
10056;SDS011;5068;51.286;7.518;2022-12-20T04:50:05;3.45;;;1.98;;
10056;SDS011;5068;51.286;7.518;2022-12-20T04:51:39;4.00;;;1.73;;
10056;SDS011;5068;51.286;7.518;2022-12-20T04:53:13;3.10;;;1.92;;
10056;SDS011;5068;51.286;7.518;2022-12-20T04:55:06;3.05;;;1.80;;
10056;SDS011;5068;51.286;7.518;2022-12-20T04:56:39;3.63;;;1.98;;
10056;SDS011;5068;51.286;7.518;2022-12-20T04:58:17;3.58;;;1.73;;
10056;SDS011;5068;51.286;7.518;2022-12-20T04:59:50;3.40;;;2.22;;
10056;SDS011;5068;51.286;7.518;2022-12-20T05:01:23;3.15;;;2.10;;
10056;SDS011;5068;51.286;7.518;2022-12-20T05:02:57;8.98;;;2.28;;
10056;SDS011;5068;51.286;7.518;2022-12-20T05:04:32;3.97;;;2.42;;
10056;SDS011;5068;51.286;7.518;2022-12-20T05:06:09;3.22;;;2.10;;
10056;SDS011;5068;51.286;7.518;2022-12-20T05:07:43;4.22;;;1.80;;
10056;SDS011;5068;51.286;7.518;2022-12-20T05:09:17;4.97;;;1.95;;
10056;SDS011;5068;51.286;7.518;2022-12-20T05:10:52;3.60;;;2.20;;
10056;SDS011;5068;51.286;7.518;2022-12-20T05:12:25;4.60;;;2.22;;
10056;SDS011;5068;51.286;7.518;2022-12-20T05:14:01;3.55;;;2.22;;
10056;SDS011;5068;51.286;7.518;2022-12-20T05:15:35;3.53;;;2.08;;
10056;SDS011;5068;51.286;7.518;2022-12-20T05:17:09;3.60;;;2.10;;
10056;SDS011;5068;51.286;7.518;2022-12-20T05:18:43;3.47;;;2.35;;
10056;SDS011;5068;51.286;7.518;2022-12-20T05:20:20;3.97;;;1.73;;
10056;SDS011;5068;51.286;7.518;2022-12-20T05:21:54;5.28;;;2.00;;
10056;SDS011;5068;51.286;7.518;2022-12-20T05:26:14;3.45;;;1.75;;
10056;SDS011;5068;51.286;7.518;2022-12-20T05:27:51;3.45;;;1.95;;
10056;SDS011;5068;51.286;7.518;2022-12-20T05:29:27;4.00;;;2.00;;
10056;SDS011;5068;51.286;7.518;2022-12-20T05:31:00;3.45;;;2.25;;
10056;SDS011;5068;51.286;7.518;2022-12-20T05:32:36;4.53;;;2.55;;
10056;SDS011;5068;51.286;7.518;2022-12-20T05:34:11;4.88;;;2.13;;
10056;SDS011;5068;51.286;7.518;2022-12-20T05:35:47;3.70;;;2.20;;
10056;SDS011;5068;51.286;7.518;2022-12-20T05:37:21;4.13;;;2.20;;
10056;SDS011;5068;51.286;7.518;2022-12-20T05:38:54;3.15;;;1.98;;
10056;SDS011;5068;51.286;7.518;2022-12-20T05:40:35;3.88;;;2.15;;
10056;SDS011;5068;51.286;7.518;2022-12-20T05:42:09;3.50;;;2.08;;
10056;SDS011;5068;51.286;7.518;2022-12-20T05:43:43;3.50;;;2.10;;
10056;SDS011;5068;51.286;7.518;2022-12-20T05:45:17;4.15;;;2.25;;
10056;SDS011;5068;51.286;7.518;2022-12-20T05:46:56;4.68;;;2.25;;
10056;SDS011;5068;51.286;7.518;2022-12-20T05:48:33;3.25;;;2.13;;
10056;SDS011;5068;51.286;7.518;2022-12-20T05:50:08;3.55;;;2.03;;
10056;SDS011;5068;51.286;7.518;2022-12-20T05:52:09;3.03;;;1.63;;
10056;SDS011;5068;51.286;7.518;2022-12-20T05:53:44;3.00;;;1.80;;
10056;SDS011;5068;51.286;7.518;2022-12-20T05:55:18;3.03;;;2.00;;
10056;SDS011;5068;51.286;7.518;2022-12-20T05:56:52;4.60;;;2.35;;
10056;SDS011;5068;51.286;7.518;2022-12-20T05:58:34;5.40;;;2.40;;
10056;SDS011;5068;51.286;7.518;2022-12-20T06:00:09;3.97;;;2.40;;
10056;SDS011;5068;51.286;7.518;2022-12-20T06:02:00;3.17;;;2.20;;
10056;SDS011;5068;51.286;7.518;2022-12-20T06:03:35;4.68;;;2.28;;
10056;SDS011;5068;51.286;7.518;2022-12-20T06:05:15;3.40;;;2.22;;
10056;SDS011;5068;51.286;7.518;2022-12-20T06:06:49;7.43;;;2.10;;
10056;SDS011;5068;51.286;7.518;2022-12-20T06:08:23;3.45;;;2.10;;
10056;SDS011;5068;51.286;7.518;2022-12-20T06:09:59;3.63;;;2.03;;
10056;SDS011;5068;51.286;7.518;2022-12-20T06:11:52;3.75;;;2.33;;
10056;SDS011;5068;51.286;7.518;2022-12-20T06:13:26;4.63;;;2.15;;
10056;SDS011;5068;51.286;7.518;2022-12-20T06:14:59;4.38;;;2.38;;
10056;SDS011;5068;51.286;7.518;2022-12-20T06:16:34;3.42;;;2.03;;
10056;SDS011;5068;51.286;7.518;2022-12-20T06:18:11;3.30;;;2.00;;
10056;SDS011;5068;51.286;7.518;2022-12-20T06:19:44;2.97;;;2.17;;
10056;SDS011;5068;51.286;7.518;2022-12-20T06:21:19;4.53;;;2.28;;
10056;SDS011;5068;51.286;7.518;2022-12-20T06:22:55;2.88;;;2.00;;
10056;SDS011;5068;51.286;7.518;2022-12-20T06:24:31;4.07;;;2.30;;
10056;SDS011;5068;51.286;7.518;2022-12-20T06:26:06;5.07;;;2.10;;
10056;SDS011;5068;51.286;7.518;2022-12-20T06:27:51;5.45;;;2.00;;
10056;SDS011;5068;51.286;7.518;2022-12-20T06:29:25;2.63;;;1.80;;
10056;SDS011;5068;51.286;7.518;2022-12-20T06:31:05;4.05;;;2.00;;
10056;SDS011;5068;51.286;7.518;2022-12-20T06:32:45;3.95;;;2.05;;
10056;SDS011;5068;51.286;7.518;2022-12-20T06:34:20;3.47;;;2.13;;
10056;SDS011;5068;51.286;7.518;2022-12-20T06:35:54;4.55;;;2.33;;
10056;SDS011;5068;51.286;7.518;2022-12-20T06:37:27;3.25;;;2.15;;
10056;SDS011;5068;51.286;7.518;2022-12-20T06:39:00;2.90;;;1.75;;
10056;SDS011;5068;51.286;7.518;2022-12-20T06:40:45;3.85;;;1.73;;
10056;SDS011;5068;51.286;7.518;2022-12-20T06:42:19;3.50;;;2.10;;
10056;SDS011;5068;51.286;7.518;2022-12-20T06:43:52;5.47;;;2.63;;
10056;SDS011;5068;51.286;7.518;2022-12-20T06:45:26;3.25;;;2.10;;
10056;SDS011;5068;51.286;7.518;2022-12-20T06:47:00;5.50;;;1.80;;
10056;SDS011;5068;51.286;7.518;2022-12-20T06:48:34;3.55;;;2.53;;
10056;SDS011;5068;51.286;7.518;2022-12-20T06:50:10;4.13;;;2.03;;
10056;SDS011;5068;51.286;7.518;2022-12-20T06:51:44;3.72;;;2.30;;
10056;SDS011;5068;51.286;7.518;2022-12-20T06:53:19;3.58;;;1.88;;
10056;SDS011;5068;51.286;7.518;2022-12-20T06:54:54;4.35;;;2.17;;
10056;SDS011;5068;51.286;7.518;2022-12-20T06:56:28;3.42;;;1.85;;
10056;SDS011;5068;51.286;7.518;2022-12-20T06:58:12;3.28;;;2.00;;
10056;SDS011;5068;51.286;7.518;2022-12-20T06:59:46;3.25;;;2.35;;
10056;SDS011;5068;51.286;7.518;2022-12-20T07:01:20;3.67;;;2.08;;
10056;SDS011;5068;51.286;7.518;2022-12-20T07:02:53;2.42;;;2.00;;
10056;SDS011;5068;51.286;7.518;2022-12-20T07:04:27;3.50;;;1.77;;
10056;SDS011;5068;51.286;7.518;2022-12-20T07:06:03;3.58;;;2.58;;
10056;SDS011;5068;51.286;7.518;2022-12-20T07:07:36;3.67;;;2.10;;
10056;SDS011;5068;51.286;7.518;2022-12-20T07:09:16;3.65;;;1.92;;
10056;SDS011;5068;51.286;7.518;2022-12-20T07:10:49;4.13;;;1.90;;
10056;SDS011;5068;51.286;7.518;2022-12-20T07:12:28;2.78;;;1.90;;
10056;SDS011;5068;51.286;7.518;2022-12-20T07:14:02;3.25;;;1.60;;
10056;SDS011;5068;51.286;7.518;2022-12-20T07:15:36;2.72;;;1.83;;
10056;SDS011;5068;51.286;7.518;2022-12-20T07:17:09;3.55;;;1.92;;
10056;SDS011;5068;51.286;7.518;2022-12-20T07:18:43;3.75;;;2.00;;
10056;SDS011;5068;51.286;7.518;2022-12-20T07:20:16;3.70;;;1.88;;
10056;SDS011;5068;51.286;7.518;2022-12-20T07:21:53;6.68;;;2.00;;
10056;SDS011;5068;51.286;7.518;2022-12-20T07:23:27;3.65;;;2.30;;
10056;SDS011;5068;51.286;7.518;2022-12-20T07:25:00;4.05;;;2.08;;
10056;SDS011;5068;51.286;7.518;2022-12-20T07:26:33;3.47;;;2.28;;
10056;SDS011;5068;51.286;7.518;2022-12-20T07:28:07;3.13;;;2.10;;
10056;SDS011;5068;51.286;7.518;2022-12-20T07:29:40;5.60;;;2.17;;
10056;SDS011;5068;51.286;7.518;2022-12-20T07:31:14;3.33;;;1.80;;
10056;SDS011;5068;51.286;7.518;2022-12-20T07:32:47;3.95;;;1.80;;
10056;SDS011;5068;51.286;7.518;2022-12-20T07:34:21;3.75;;;1.77;;
10056;SDS011;5068;51.286;7.518;2022-12-20T07:35:58;3.00;;;1.70;;
10056;SDS011;5068;51.286;7.518;2022-12-20T07:37:35;2.35;;;1.45;;
10056;SDS011;5068;51.286;7.518;2022-12-20T07:39:09;2.63;;;1.80;;
10056;SDS011;5068;51.286;7.518;2022-12-20T07:40:43;2.78;;;2.15;;
10056;SDS011;5068;51.286;7.518;2022-12-20T07:42:16;3.00;;;1.70;;
10056;SDS011;5068;51.286;7.518;2022-12-20T07:43:52;4.28;;;2.10;;
10056;SDS011;5068;51.286;7.518;2022-12-20T07:45:26;3.55;;;1.70;;
10056;SDS011;5068;51.286;7.518;2022-12-20T07:46:59;5.93;;;2.25;;
10056;SDS011;5068;51.286;7.518;2022-12-20T07:48:35;3.85;;;1.60;;
10056;SDS011;5068;51.286;7.518;2022-12-20T07:50:09;3.08;;;1.58;;
10056;SDS011;5068;51.286;7.518;2022-12-20T07:51:43;2.55;;;1.50;;
10056;SDS011;5068;51.286;7.518;2022-12-20T07:53:23;3.58;;;1.83;;
10056;SDS011;5068;51.286;7.518;2022-12-20T07:55:00;3.90;;;1.75;;
10056;SDS011;5068;51.286;7.518;2022-12-20T07:56:40;4.85;;;1.90;;
10056;SDS011;5068;51.286;7.518;2022-12-20T07:58:17;3.85;;;1.75;;
10056;SDS011;5068;51.286;7.518;2022-12-20T07:59:53;2.53;;;1.70;;
10056;SDS011;5068;51.286;7.518;2022-12-20T08:01:30;2.38;;;1.50;;
10056;SDS011;5068;51.286;7.518;2022-12-20T08:03:04;3.83;;;1.80;;
10056;SDS011;5068;51.286;7.518;2022-12-20T08:04:44;4.82;;;1.90;;
10056;SDS011;5068;51.286;7.518;2022-12-20T08:06:22;6.75;;;1.95;;
10056;SDS011;5068;51.286;7.518;2022-12-20T08:07:56;2.83;;;1.60;;
10056;SDS011;5068;51.286;7.518;2022-12-20T08:09:34;3.92;;;2.05;;
10056;SDS011;5068;51.286;7.518;2022-12-20T08:11:12;3.25;;;1.58;;
10056;SDS011;5068;51.286;7.518;2022-12-20T08:12:46;4.28;;;1.80;;
10056;SDS011;5068;51.286;7.518;2022-12-20T08:14:21;3.42;;;1.75;;
10056;SDS011;5068;51.286;7.518;2022-12-20T08:15:54;2.30;;;1.52;;
10056;SDS011;5068;51.286;7.518;2022-12-20T08:17:28;2.25;;;1.65;;
10056;SDS011;5068;51.286;7.518;2022-12-20T08:19:02;3.50;;;1.75;;
10056;SDS011;5068;51.286;7.518;2022-12-20T08:20:35;4.07;;;2.00;;
10056;SDS011;5068;51.286;7.518;2022-12-20T08:22:08;2.50;;;1.70;;
10056;SDS011;5068;51.286;7.518;2022-12-20T08:23:42;3.92;;;2.05;;
10056;SDS011;5068;51.286;7.518;2022-12-20T08:25:16;4.10;;;1.73;;
10056;SDS011;5068;51.286;7.518;2022-12-20T08:26:52;2.75;;;1.85;;
10056;SDS011;5068;51.286;7.518;2022-12-20T08:28:25;3.97;;;1.95;;
10056;SDS011;5068;51.286;7.518;2022-12-20T08:29:58;3.58;;;2.10;;
10056;SDS011;5068;51.286;7.518;2022-12-20T08:31:32;3.28;;;1.70;;
10056;SDS011;5068;51.286;7.518;2022-12-20T08:33:14;3.33;;;1.73;;
10056;SDS011;5068;51.286;7.518;2022-12-20T08:34:48;5.35;;;1.90;;
10056;SDS011;5068;51.286;7.518;2022-12-20T08:36:21;5.30;;;2.00;;
10056;SDS011;5068;51.286;7.518;2022-12-20T08:37:54;3.70;;;1.92;;
10056;SDS011;5068;51.286;7.518;2022-12-20T08:39:29;2.80;;;1.70;;
10056;SDS011;5068;51.286;7.518;2022-12-20T08:41:05;3.20;;;1.60;;
10056;SDS011;5068;51.286;7.518;2022-12-20T08:42:41;4.05;;;2.22;;
10056;SDS011;5068;51.286;7.518;2022-12-20T08:44:14;2.20;;;1.67;;
10056;SDS011;5068;51.286;7.518;2022-12-20T08:45:50;3.38;;;1.80;;
10056;SDS011;5068;51.286;7.518;2022-12-20T08:47:25;2.40;;;1.80;;
10056;SDS011;5068;51.286;7.518;2022-12-20T08:49:01;3.40;;;2.03;;
10056;SDS011;5068;51.286;7.518;2022-12-20T08:50:34;7.70;;;2.28;;
10056;SDS011;5068;51.286;7.518;2022-12-20T08:52:08;2.65;;;1.70;;
10056;SDS011;5068;51.286;7.518;2022-12-20T08:53:41;2.90;;;1.55;;
10056;SDS011;5068;51.286;7.518;2022-12-20T08:55:15;3.78;;;2.10;;
10056;SDS011;5068;51.286;7.518;2022-12-20T08:56:55;3.22;;;1.88;;
10056;SDS011;5068;51.286;7.518;2022-12-20T08:58:28;3.50;;;1.83;;
10056;SDS011;5068;51.286;7.518;2022-12-20T09:00:02;3.28;;;1.58;;
10056;SDS011;5068;51.286;7.518;2022-12-20T09:01:36;2.63;;;1.55;;
10056;SDS011;5068;51.286;7.518;2022-12-20T09:03:14;4.63;;;1.77;;
10056;SDS011;5068;51.286;7.518;2022-12-20T09:04:48;3.42;;;1.85;;
10056;SDS011;5068;51.286;7.518;2022-12-20T09:06:22;3.70;;;2.00;;
10056;SDS011;5068;51.286;7.518;2022-12-20T09:07:55;2.97;;;1.73;;
10056;SDS011;5068;51.286;7.518;2022-12-20T09:09:29;3.63;;;1.77;;
10056;SDS011;5068;51.286;7.518;2022-12-20T09:11:04;2.95;;;1.60;;
10056;SDS011;5068;51.286;7.518;2022-12-20T09:12:43;3.22;;;1.95;;
10056;SDS011;5068;51.286;7.518;2022-12-20T09:14:18;3.35;;;1.70;;
10056;SDS011;5068;51.286;7.518;2022-12-20T09:15:52;3.08;;;2.00;;
10056;SDS011;5068;51.286;7.518;2022-12-20T09:17:25;3.67;;;2.03;;
10056;SDS011;5068;51.286;7.518;2022-12-20T09:18:59;5.28;;;1.92;;
10056;SDS011;5068;51.286;7.518;2022-12-20T09:20:40;4.90;;;1.65;;
10056;SDS011;5068;51.286;7.518;2022-12-20T09:22:16;3.25;;;1.65;;
10056;SDS011;5068;51.286;7.518;2022-12-20T09:23:49;2.30;;;1.52;;
10056;SDS011;5068;51.286;7.518;2022-12-20T09:25:24;3.40;;;1.65;;
10056;SDS011;5068;51.286;7.518;2022-12-20T09:26:58;2.75;;;1.75;;
10056;SDS011;5068;51.286;7.518;2022-12-20T09:28:33;3.72;;;1.80;;
10056;SDS011;5068;51.286;7.518;2022-12-20T09:30:07;4.30;;;1.90;;
10056;SDS011;5068;51.286;7.518;2022-12-20T09:31:42;4.75;;;2.05;;
10056;SDS011;5068;51.286;7.518;2022-12-20T09:33:16;3.97;;;2.13;;
10056;SDS011;5068;51.286;7.518;2022-12-20T09:34:49;2.85;;;1.77;;
10056;SDS011;5068;51.286;7.518;2022-12-20T09:36:23;3.50;;;2.00;;
10056;SDS011;5068;51.286;7.518;2022-12-20T09:37:58;3.03;;;2.00;;
10056;SDS011;5068;51.286;7.518;2022-12-20T09:39:31;3.13;;;1.77;;
10056;SDS011;5068;51.286;7.518;2022-12-20T09:41:05;2.85;;;1.80;;
10056;SDS011;5068;51.286;7.518;2022-12-20T09:42:53;2.10;;;1.70;;
10056;SDS011;5068;51.286;7.518;2022-12-20T09:44:28;3.05;;;1.58;;
10056;SDS011;5068;51.286;7.518;2022-12-20T09:46:09;4.97;;;1.70;;
10056;SDS011;5068;51.286;7.518;2022-12-20T09:47:47;2.80;;;1.50;;
10056;SDS011;5068;51.286;7.518;2022-12-20T09:49:21;5.10;;;1.83;;
10056;SDS011;5068;51.286;7.518;2022-12-20T09:51:06;3.05;;;1.88;;
10056;SDS011;5068;51.286;7.518;2022-12-20T09:53:02;2.58;;;1.90;;
10056;SDS011;5068;51.286;7.518;2022-12-20T09:54:53;2.60;;;1.60;;
10056;SDS011;5068;51.286;7.518;2022-12-20T09:56:42;3.25;;;1.77;;
10056;SDS011;5068;51.286;7.518;2022-12-20T09:58:27;3.65;;;1.90;;
10056;SDS011;5068;51.286;7.518;2022-12-20T10:00:22;2.83;;;1.75;;